Time;durP1;ratioP1;P1;durP2;ratioP2;P2;SDS_P1;SDS_P2;PMS_P1;PMS_P2;Temp;Humidity;BMP_temperature;BMP_pressure;BME280_temperature;BME280_humidity;BME280_pressure;Samples;Min_cycle;Max_cycle;Signal;HPM_P1;HPM_P2
2022/11/13 00:01:21;;;;;;;298.03;136.77;;;;;;;;;;5018494;28;20686;-68
2022/11/13 00:03:47;;;;;;;280.57;132.30;;;;;;;;;;5017274;28;20220;-67
2022/11/13 00:06:13;;;;;;;257.37;122.10;;;;;;;;;;5016700;28;20204;-67
2022/11/13 00:08:39;;;;;;;325.47;146.10;;;;;;;;;;5022939;28;20307;-67
2022/11/13 00:11:06;;;;;;;278.87;130.27;;;;;;;;;;5018442;28;20220;-67
2022/11/13 00:13:33;;;;;;;300.53;136.77;;;;;;;;;;5016109;28;20220;-67
2022/11/13 00:16:00;;;;;;;228.33;116.13;;;;;;;;;;5012988;28;20609;-67
2022/11/13 00:18:26;;;;;;;287.60;135.27;;;;;;;;;;5014310;28;20573;-67
2022/11/13 00:20:52;;;;;;;299.17;139.53;;;;;;;;;;5015919;28;20227;-68
2022/11/13 00:23:18;;;;;;;324.47;147.93;;;;;;;;;;5013494;28;20621;-67
2022/11/13 00:25:44;;;;;;;253.67;121.60;;;;;;;;;;5023313;28;20215;-67
2022/11/13 00:28:10;;;;;;;252.97;121.13;;;;;;;;;;5028764;28;20203;-68
2022/11/13 00:30:36;;;;;;;241.90;119.33;;;;;;;;;;5016980;28;20202;-67
2022/11/13 00:33:02;;;;;;;289.60;133.63;;;;;;;;;;5017480;28;20211;-68
2022/11/13 00:35:27;;;;;;;299.03;137.57;;;;;;;;;;5014742;28;20235;-68
2022/11/13 00:37:54;;;;;;;294.43;134.90;;;;;;;;;;5012025;28;20227;-67
2022/11/13 00:40:20;;;;;;;279.03;130.40;;;;;;;;;;5013331;28;20223;-68
2022/11/13 00:42:45;;;;;;;276.23;130.23;;;;;;;;;;5008592;28;20212;-67
2022/11/13 00:45:11;;;;;;;335.87;154.63;;;;;;;;;;5010538;28;20176;-68
2022/11/13 00:47:37;;;;;;;285.20;132.73;;;;;;;;;;5008017;28;20228;-68
2022/11/13 00:50:03;;;;;;;278.60;132.83;;;;;;;;;;5011773;28;20219;-68
2022/11/13 00:52:29;;;;;;;249.13;120.30;;;;;;;;;;5019704;28;20228;-67
2022/11/13 00:54:55;;;;;;;309.70;144.27;;;;;;;;;;5012271;28;20786;-67
2022/11/13 00:57:21;;;;;;;343.00;152.53;;;;;;;;;;5002892;28;20196;-67
2022/11/13 00:59:47;;;;;;;283.10;132.57;;;;;;;;;;5012740;28;20218;-68
2022/11/13 01:02:14;;;;;;;338.53;150.70;;;;;;;;;;5005837;28;20219;-68
2022/11/13 01:04:40;;;;;;;281.43;135.50;;;;;;;;;;5012645;28;20636;-67
2022/11/13 01:07:06;;;;;;;248.13;120.37;;;;;;;;;;5019675;28;20224;-67
2022/11/13 01:09:32;;;;;;;318.60;146.43;;;;;;;;;;5014575;28;20207;-67
2022/11/13 01:11:58;;;;;;;234.03;117.33;;;;;;;;;;5021840;28;20765;-67
2022/11/13 01:14:24;;;;;;;425.10;187.77;;;;;;;;;;5022258;28;20212;-67
2022/11/13 01:16:50;;;;;;;259.97;125.57;;;;;;;;;;5015320;28;20316;-68
2022/11/13 01:19:16;;;;;;;273.63;128.90;;;;;;;;;;5018268;28;20324;-67
2022/11/13 01:21:42;;;;;;;224.57;112.53;;;;;;;;;;5026706;28;20242;-67
2022/11/13 01:24:08;;;;;;;275.17;129.47;;;;;;;;;;5017191;28;20191;-67
2022/11/13 01:26:34;;;;;;;282.47;130.47;;;;;;;;;;5011264;28;20223;-67
2022/11/13 01:29:00;;;;;;;279.03;130.43;;;;;;;;;;5008980;28;20761;-67
2022/11/13 01:31:27;;;;;;;260.87;123.77;;;;;;;;;;5021194;28;20219;-67
2022/11/13 01:33:54;;;;;;;234.37;114.87;;;;;;;;;;5026101;28;20235;-67
2022/11/13 01:36:21;;;;;;;333.53;148.40;;;;;;;;;;5014629;28;20188;-67
2022/11/13 01:38:48;;;;;;;267.10;126.77;;;;;;;;;;5016382;28;20232;-67
2022/11/13 01:41:19;;;;;;;309.97;140.53;;;;;;;;;;5010445;28;20219;-67
2022/11/13 01:43:45;;;;;;;339.63;149.33;;;;;;;;;;5014462;28;20219;-68
2022/11/13 01:46:19;;;;;;;238.73;115.40;;;;;;;;;;5014295;28;20314;-67
2022/11/13 01:48:55;;;;;;;228.20;112.57;;;;;;;;;;5024064;28;20184;-67
2022/11/13 01:51:30;;;;;;;220.40;110.50;;;;;;;;;;5020304;28;20261;-67
2022/11/13 01:53:56;;;;;;;309.07;142.10;;;;;;;;;;5021665;28;20268;-67
2022/11/13 01:56:22;;;;;;;255.23;121.67;;;;;;;;;;5010954;28;20211;-67
2022/11/13 01:58:52;;;;;;;265.43;127.27;;;;;;;;;;5013035;28;20253;-67
2022/11/13 02:01:18;;;;;;;295.27;136.27;;;;;;;;;;5013029;28;20243;-67
2022/11/13 02:03:44;;;;;;;299.80;136.03;;;;;;;;;;5012262;28;20616;-67
2022/11/13 02:06:10;;;;;;;267.77;129.13;;;;;;;;;;5013818;28;20204;-67
2022/11/13 02:08:36;;;;;;;300.57;141.10;;;;;;;;;;5007138;28;20247;-68
2022/11/13 02:11:02;;;;;;;268.70;128.57;;;;;;;;;;5010232;28;20254;-67
2022/11/13 02:13:28;;;;;;;279.20;130.57;;;;;;;;;;5010911;28;20218;-67
2022/11/13 02:15:54;;;;;;;287.40;133.33;;;;;;;;;;5012028;28;20215;-68
2022/11/13 02:18:21;;;;;;;329.97;150.20;;;;;;;;;;5018296;28;20188;-68
2022/11/13 02:20:55;;;;;;;227.57;112.90;;;;;;;;;;5016581;28;20281;-67
2022/11/13 02:23:36;;;;;;;272.23;128.97;;;;;;;;;;5012936;28;20917;-67
2022/11/13 02:26:03;;;;;;;248.17;120.40;;;;;;;;;;5011213;28;20228;-67
2022/11/13 02:28:29;;;;;;;285.13;131.33;;;;;;;;;;5007678;28;20216;-67
2022/11/13 02:30:55;;;;;;;315.40;143.63;;;;;;;;;;5015802;28;20234;-67
2022/11/13 02:33:21;;;;;;;275.83;129.03;;;;;;;;;;5012800;28;20221;-67
2022/11/13 02:35:46;;;;;;;256.70;125.00;;;;;;;;;;5015048;28;20220;-67
2022/11/13 02:38:12;;;;;;;331.03;149.93;;;;;;;;;;5021255;28;20287;-67
2022/11/13 02:40:38;;;;;;;303.67;139.00;;;;;;;;;;5009528;28;20220;-67
2022/11/13 02:43:04;;;;;;;328.93;151.20;;;;;;;;;;5003656;28;20228;-67
2022/11/13 02:45:30;;;;;;;297.97;139.97;;;;;;;;;;5016339;28;20674;-66
2022/11/13 02:47:58;;;;;;;266.30;126.57;;;;;;;;;;5013149;28;20184;-67
2022/11/13 02:50:24;;;;;;;251.57;120.30;;;;;;;;;;5013968;28;20338;-67
2022/11/13 02:52:50;;;;;;;287.30;133.47;;;;;;;;;;5021483;28;20307;-67
2022/11/13 02:55:16;;;;;;;292.60;136.10;;;;;;;;;;5010518;28;20870;-67
2022/11/13 02:57:42;;;;;;;221.17;111.43;;;;;;;;;;5013490;28;20810;-67
2022/11/13 03:00:08;;;;;;;299.43;141.30;;;;;;;;;;5019395;28;20574;-67
2022/11/13 03:02:34;;;;;;;262.57;124.70;;;;;;;;;;5012554;28;20247;-67
2022/11/13 03:05:00;;;;;;;305.07;141.80;;;;;;;;;;5013745;28;20215;-67
2022/11/13 03:07:26;;;;;;;236.10;116.93;;;;;;;;;;5013273;28;20327;-67
2022/11/13 03:09:52;;;;;;;291.53;137.03;;;;;;;;;;5011424;28;20220;-67
2022/11/13 03:12:18;;;;;;;364.87;166.43;;;;;;;;;;5001548;28;20209;-67
2022/11/13 03:14:44;;;;;;;289.13;136.37;;;;;;;;;;5005588;28;20659;-67
2022/11/13 03:17:09;;;;;;;286.23;133.17;;;;;;;;;;5004399;28;20215;-67
2022/11/13 03:19:35;;;;;;;303.50;142.47;;;;;;;;;;5007416;28;20216;-67
2022/11/13 03:22:01;;;;;;;244.40;118.80;;;;;;;;;;5012241;28;20682;-67
2022/11/13 03:24:27;;;;;;;300.93;139.37;;;;;;;;;;5014832;28;20275;-66
2022/11/13 03:26:53;;;;;;;223.47;112.80;;;;;;;;;;5014288;28;20295;-67
2022/11/13 03:29:19;;;;;;;326.77;148.37;;;;;;;;;;5009816;28;20559;-67
2022/11/13 03:31:45;;;;;;;354.87;159.87;;;;;;;;;;5003502;28;20220;-67
2022/11/13 03:34:11;;;;;;;264.73;127.23;;;;;;;;;;5009589;28;20274;-67
2022/11/13 03:36:37;;;;;;;336.83;152.10;;;;;;;;;;5016030;28;20694;-67
2022/11/13 03:39:03;;;;;;;274.10;128.80;;;;;;;;;;5015332;28;20276;-67
2022/11/13 03:41:28;;;;;;;328.10;149.30;;;;;;;;;;5011700;28;20234;-67
2022/11/13 03:43:54;;;;;;;267.43;126.50;;;;;;;;;;5019889;28;20204;-67
2022/11/13 03:46:20;;;;;;;328.20;150.20;;;;;;;;;;5009050;28;20323;-67
2022/11/13 03:48:46;;;;;;;269.37;127.67;;;;;;;;;;5010176;28;20232;-67
2022/11/13 03:51:12;;;;;;;370.37;162.30;;;;;;;;;;5014988;28;20187;-67
2022/11/13 03:53:38;;;;;;;299.43;141.00;;;;;;;;;;4999598;28;20213;-67
2022/11/13 03:56:04;;;;;;;310.10;142.60;;;;;;;;;;5008649;28;20247;-67
2022/11/13 03:58:30;;;;;;;340.60;154.23;;;;;;;;;;5010774;28;20728;-67
2022/11/13 04:00:56;;;;;;;341.10;155.23;;;;;;;;;;5006391;28;20220;-67
2022/11/13 04:03:22;;;;;;;328.63;147.57;;;;;;;;;;4999623;28;20270;-67
2022/11/13 04:05:49;;;;;;;340.30;152.70;;;;;;;;;;5003000;28;20220;-67
2022/11/13 04:08:15;;;;;;;254.30;123.77;;;;;;;;;;5007545;28;20240;-67
2022/11/13 04:10:41;;;;;;;220.43;112.60;;;;;;;;;;5021398;28;20218;-67
2022/11/13 04:13:07;;;;;;;263.77;125.13;;;;;;;;;;5030215;28;20392;-67
2022/11/13 04:15:33;;;;;;;253.00;123.07;;;;;;;;;;5016657;28;20185;-67
2022/11/13 04:17:59;;;;;;;236.37;117.83;;;;;;;;;;5018406;28;20187;-67
2022/11/13 04:20:26;;;;;;;289.43;134.50;;;;;;;;;;5014778;28;20215;-67
2022/11/13 04:22:52;;;;;;;228.17;114.23;;;;;;;;;;5014229;28;20794;-67
2022/11/13 04:25:18;;;;;;;353.67;158.50;;;;;;;;;;5008483;28;20315;-67
2022/11/13 04:27:44;;;;;;;269.47;130.43;;;;;;;;;;5015940;28;20221;-67
2022/11/13 04:30:10;;;;;;;293.30;139.50;;;;;;;;;;5016574;28;20192;-67
2022/11/13 04:32:36;;;;;;;273.30;128.63;;;;;;;;;;5015533;28;20610;-67
2022/11/13 04:35:03;;;;;;;331.47;153.17;;;;;;;;;;5015348;28;20223;-67
2022/11/13 04:37:28;;;;;;;268.60;125.57;;;;;;;;;;5017801;28;20213;-67
2022/11/13 04:39:54;;;;;;;267.47;127.93;;;;;;;;;;5012230;28;20244;-67
2022/11/13 04:45:05;;;;;;;263.03;126.07;;;;;;;;;;5023637;28;20899;-67
2022/11/13 04:47:31;;;;;;;284.73;132.03;;;;;;;;;;5018682;28;20277;-67
2022/11/13 04:49:57;;;;;;;283.37;129.53;;;;;;;;;;5014456;28;20212;-67
2022/11/13 04:52:23;;;;;;;275.60;130.13;;;;;;;;;;5021284;28;20224;-67
2022/11/13 04:54:51;;;;;;;251.50;120.83;;;;;;;;;;5021943;28;20557;-65
2022/11/13 04:57:17;;;;;;;325.50;146.80;;;;;;;;;;5016757;28;20295;-67
2022/11/13 04:59:43;;;;;;;256.63;122.63;;;;;;;;;;5011473;28;20281;-67
2022/11/13 05:02:09;;;;;;;238.63;116.53;;;;;;;;;;5021477;28;20215;-67
2022/11/13 05:04:35;;;;;;;223.97;112.47;;;;;;;;;;5023388;28;20383;-67
2022/11/13 05:07:01;;;;;;;224.37;112.20;;;;;;;;;;5024629;28;20323;-67
2022/11/13 05:09:27;;;;;;;226.57;113.10;;;;;;;;;;5025801;28;20223;-66
2022/11/13 05:11:53;;;;;;;220.00;114.10;;;;;;;;;;5023099;28;20208;-67
2022/11/13 05:14:19;;;;;;;238.73;117.17;;;;;;;;;;5025661;28;20298;-67
2022/11/13 05:16:45;;;;;;;274.57;133.07;;;;;;;;;;5018381;28;20220;-67
2022/11/13 05:19:11;;;;;;;255.37;124.43;;;;;;;;;;5011436;28;20235;-67
2022/11/13 05:21:38;;;;;;;231.30;115.83;;;;;;;;;;5027263;28;20646;-67
2022/11/13 05:24:04;;;;;;;234.50;117.00;;;;;;;;;;5024505;28;20203;-67
2022/11/13 05:26:30;;;;;;;275.43;129.00;;;;;;;;;;5014812;28;20220;-67
2022/11/13 05:28:57;;;;;;;281.63;132.53;;;;;;;;;;5014647;28;20240;-67
2022/11/13 05:31:23;;;;;;;259.67;125.67;;;;;;;;;;5015385;28;20265;-67
2022/11/13 05:33:49;;;;;;;246.97;120.90;;;;;;;;;;5025305;28;20211;-67
2022/11/13 05:36:16;;;;;;;282.03;133.83;;;;;;;;;;5010195;28;20259;-67
2022/11/13 05:38:41;;;;;;;241.80;120.57;;;;;;;;;;5016145;28;20220;-67
2022/11/13 05:41:09;;;;;;;287.47;135.80;;;;;;;;;;5014350;28;20220;-67
2022/11/13 05:43:35;;;;;;;277.87;131.67;;;;;;;;;;5011851;28;20708;-67
2022/11/13 05:46:05;;;;;;;214.73;109.97;;;;;;;;;;5012406;28;20228;-67
2022/11/13 05:48:32;;;;;;;282.90;135.37;;;;;;;;;;5022584;28;20180;-67
2022/11/13 05:51:05;;;;;;;304.27;138.77;;;;;;;;;;5016646;28;20286;-67
2022/11/13 05:53:34;;;;;;;247.93;122.57;;;;;;;;;;5024640;28;20212;-67
2022/11/13 05:56:05;;;;;;;308.67;140.87;;;;;;;;;;5011698;28;20216;-67
2022/11/13 05:58:31;;;;;;;278.73;135.23;;;;;;;;;;5015871;28;20222;-67
2022/11/13 06:01:04;;;;;;;229.63;118.40;;;;;;;;;;5014100;28;20437;-67
2022/11/13 06:03:30;;;;;;;271.73;130.40;;;;;;;;;;5012069;28;20236;-67
2022/11/13 06:05:57;;;;;;;286.10;136.20;;;;;;;;;;5003790;28;20196;-67
2022/11/13 06:08:23;;;;;;;261.63;127.47;;;;;;;;;;5020386;28;20222;-67
2022/11/13 06:10:49;;;;;;;360.33;167.17;;;;;;;;;;5015755;28;20211;-67
2022/11/13 06:13:15;;;;;;;281.37;135.87;;;;;;;;;;5012988;28;20220;-67
2022/11/13 06:15:41;;;;;;;247.87;120.80;;;;;;;;;;5021657;28;20787;-67
2022/11/13 06:18:07;;;;;;;240.60;121.50;;;;;;;;;;5010432;28;20193;-67
2022/11/13 06:20:36;;;;;;;285.23;138.90;;;;;;;;;;5006749;28;20223;-67
2022/11/13 06:23:02;;;;;;;308.87;147.07;;;;;;;;;;5014097;28;20242;-68
2022/11/13 06:25:28;;;;;;;264.50;131.17;;;;;;;;;;5012225;28;20216;-68
2022/11/13 06:27:54;;;;;;;265.77;130.00;;;;;;;;;;5011748;28;20597;-67
2022/11/13 06:30:20;;;;;;;288.77;140.80;;;;;;;;;;5017042;28;20183;-68
2022/11/13 06:32:53;;;;;;;286.77;134.30;;;;;;;;;;5024138;28;20236;-67
2022/11/13 06:35:19;;;;;;;250.67;126.80;;;;;;;;;;5018993;28;20215;-67
2022/11/13 06:37:45;;;;;;;242.50;121.07;;;;;;;;;;5022940;28;20303;-68
2022/11/13 06:40:11;;;;;;;289.60;139.83;;;;;;;;;;5014451;28;21661;-73
2022/11/13 06:42:37;;;;;;;341.33;158.97;;;;;;;;;;5005954;28;20203;-71
2022/11/13 06:45:03;;;;;;;311.47;149.50;;;;;;;;;;5009173;28;20211;-72
2022/11/13 06:47:29;;;;;;;236.83;115.90;;;;;;;;;;5024794;28;20237;-72
2022/11/13 06:49:55;;;;;;;266.50;126.23;;;;;;;;;;5019465;28;20286;-72
2022/11/13 06:52:21;;;;;;;297.90;135.87;;;;;;;;;;5011351;28;20641;-72
2022/11/13 06:54:47;;;;;;;270.93;128.87;;;;;;;;;;5016337;28;20295;-72
2022/11/13 06:57:13;;;;;;;309.37;146.33;;;;;;;;;;5017524;28;20669;-72
2022/11/13 06:59:39;;;;;;;284.63;132.03;;;;;;;;;;5003408;28;20303;-74
2022/11/13 07:02:05;;;;;;;267.43;126.30;;;;;;;;;;5014539;28;20333;-72
2022/11/13 07:04:31;;;;;;;320.60;146.73;;;;;;;;;;5009413;28;20316;-72
2022/11/13 07:06:57;;;;;;;274.87;131.70;;;;;;;;;;5014883;28;20227;-73
2022/11/13 07:09:23;;;;;;;275.53;128.50;;;;;;;;;;5019804;28;20216;-73
2022/11/13 07:11:49;;;;;;;255.90;122.00;;;;;;;;;;5015454;28;23680;-72
2022/11/13 07:14:15;;;;;;;245.67;119.43;;;;;;;;;;5023920;28;20944;-72
2022/11/13 07:16:41;;;;;;;240.33;117.47;;;;;;;;;;5021227;28;20227;-72
2022/11/13 07:19:07;;;;;;;259.47;125.40;;;;;;;;;;5017869;28;20219;-72
2022/11/13 07:21:33;;;;;;;286.23;139.17;;;;;;;;;;5016496;28;20196;-73
2022/11/13 07:23:59;;;;;;;274.67;132.87;;;;;;;;;;5018896;28;20670;-73
2022/11/13 07:26:24;;;;;;;243.17;120.47;;;;;;;;;;5018050;28;20269;-73
2022/11/13 07:28:50;;;;;;;305.10;141.90;;;;;;;;;;5015261;28;20208;-72
2022/11/13 07:31:17;;;;;;;259.40;124.90;;;;;;;;;;5020259;28;20824;-73
2022/11/13 07:33:43;;;;;;;340.27;160.33;;;;;;;;;;5025033;28;20760;-72
2022/11/13 07:36:10;;;;;;;247.53;123.63;;;;;;;;;;5019503;28;20654;-72
2022/11/13 07:38:36;;;;;;;252.00;125.50;;;;;;;;;;5026172;28;20566;-73
2022/11/13 07:41:02;;;;;;;268.67;127.53;;;;;;;;;;5016511;28;20219;-73
2022/11/13 07:43:28;;;;;;;331.23;152.53;;;;;;;;;;5014498;28;20238;-73
2022/11/13 07:45:54;;;;;;;287.23;133.80;;;;;;;;;;5009512;28;20228;-73
2022/11/13 07:48:21;;;;;;;297.90;141.30;;;;;;;;;;5016614;28;20671;-73
2022/11/13 07:50:47;;;;;;;357.20;161.37;;;;;;;;;;5004846;28;20212;-72
2022/11/13 07:53:13;;;;;;;330.17;154.73;;;;;;;;;;5004174;28;20250;-72
2022/11/13 07:55:39;;;;;;;338.93;160.43;;;;;;;;;;5003405;28;20295;-69
2022/11/13 07:58:05;;;;;;;246.43;126.17;;;;;;;;;;5017043;28;20294;-69
2022/11/13 08:00:32;;;;;;;342.37;164.47;;;;;;;;;;5015312;28;20261;-70
2022/11/13 08:03:03;;;;;;;330.27;153.70;;;;;;;;;;5002849;28;20208;-70
2022/11/13 08:05:29;;;;;;;321.67;151.27;;;;;;;;;;4998930;28;20212;-70
2022/11/13 08:07:55;;;;;;;315.23;146.80;;;;;;;;;;4999269;28;21500;-71
2022/11/13 08:10:21;;;;;;;337.30;157.47;;;;;;;;;;5015275;28;20227;-71
2022/11/13 08:12:47;;;;;;;396.53;188.10;;;;;;;;;;5018693;28;20220;-71
2022/11/13 08:15:13;;;;;;;272.93;130.73;;;;;;;;;;5012985;28;20187;-71
2022/11/13 08:17:39;;;;;;;281.50;135.57;;;;;;;;;;5016976;28;20209;-71
2022/11/13 08:20:06;;;;;;;395.37;180.70;;;;;;;;;;5010593;28;20219;-74
2022/11/13 08:22:33;;;;;;;246.97;124.73;;;;;;;;;;5019352;28;20639;-72
2022/11/13 08:24:59;;;;;;;329.93;154.80;;;;;;;;;;5014784;28;20235;-74
2022/11/13 08:27:25;;;;;;;414.03;185.43;;;;;;;;;;4997152;28;20682;-70
2022/11/13 08:29:51;;;;;;;295.70;142.80;;;;;;;;;;5013250;28;20226;-71
2022/11/13 08:32:18;;;;;;;366.80;166.33;;;;;;;;;;5009002;28;20216;-71
2022/11/13 08:34:44;;;;;;;349.80;160.23;;;;;;;;;;5003987;28;20232;-70
2022/11/13 08:37:10;;;;;;;327.60;149.70;;;;;;;;;;5007371;28;20626;-70
2022/11/13 08:39:36;;;;;;;573.80;253.07;;;;;;;;;;4996134;28;20193;-66
2022/11/13 08:42:02;;;;;;;397.17;185.77;;;;;;;;;;4984763;28;20645;-65
2022/11/13 08:44:28;;;;;;;402.63;180.30;;;;;;;;;;4995513;28;20213;-67
2022/11/13 08:46:54;;;;;;;373.70;179.90;;;;;;;;;;4998948;28;20585;-71
2022/11/13 08:49:20;;;;;;;341.17;161.87;;;;;;;;;;5002236;28;20898;-72
2022/11/13 08:51:45;;;;;;;335.90;159.50;;;;;;;;;;5003307;28;20204;-73
2022/11/13 08:54:11;;;;;;;298.00;141.67;;;;;;;;;;5004464;28;20594;-73
2022/11/13 08:56:37;;;;;;;367.43;172.57;;;;;;;;;;5005861;28;20228;-71
2022/11/13 08:59:03;;;;;;;296.63;141.57;;;;;;;;;;5003096;28;20220;-72
2022/11/13 09:01:29;;;;;;;396.90;184.50;;;;;;;;;;5007015;28;20366;-72
2022/11/13 09:03:57;;;;;;;344.97;163.13;;;;;;;;;;5000435;28;20226;-71
2022/11/13 09:06:24;;;;;;;311.73;147.37;;;;;;;;;;4997160;28;23372;-72
2022/11/13 09:08:50;;;;;;;274.30;138.23;;;;;;;;;;5009064;28;20224;-71
2022/11/13 09:11:16;;;;;;;264.97;127.53;;;;;;;;;;5004152;28;20212;-72
2022/11/13 09:13:42;;;;;;;283.90;139.10;;;;;;;;;;5016153;28;20590;-73
2022/11/13 09:16:08;;;;;;;335.57;159.20;;;;;;;;;;5013413;28;20211;-71
2022/11/13 09:18:34;;;;;;;365.77;175.40;;;;;;;;;;5000033;28;20220;-72
2022/11/13 09:21:01;;;;;;;265.87;129.67;;;;;;;;;;5006345;28;20335;-72
2022/11/13 09:23:27;;;;;;;383.37;180.33;;;;;;;;;;5009435;28;20223;-71
2022/11/13 09:25:54;;;;;;;309.60;145.87;;;;;;;;;;5023294;28;20207;-72
2022/11/13 09:28:20;;;;;;;367.77;172.97;;;;;;;;;;5007482;28;20514;-71
2022/11/13 09:30:46;;;;;;;377.97;175.13;;;;;;;;;;5004691;28;20553;-72
2022/11/13 09:33:15;;;;;;;306.33;150.93;;;;;;;;;;5014529;28;20208;-72
2022/11/13 09:35:42;;;;;;;327.10;152.17;;;;;;;;;;5008262;28;20357;-72
2022/11/13 09:38:09;;;;;;;388.60;177.10;;;;;;;;;;5016274;28;20281;-72
2022/11/13 09:40:35;;;;;;;351.23;162.13;;;;;;;;;;5000290;28;20220;-71
2022/11/13 09:43:04;;;;;;;324.03;155.67;;;;;;;;;;5006710;28;20216;-72
2022/11/13 09:45:30;;;;;;;315.43;153.80;;;;;;;;;;4996175;28;20620;-72
2022/11/13 09:47:57;;;;;;;281.43;135.40;;;;;;;;;;5000249;28;20731;-71
2022/11/13 09:50:25;;;;;;;291.47;136.13;;;;;;;;;;5001933;28;20254;-72
2022/11/13 09:52:52;;;;;;;294.10;143.93;;;;;;;;;;5008593;28;20226;-71
2022/11/13 09:55:20;;;;;;;317.97;148.87;;;;;;;;;;5010999;28;20563;-72
2022/11/13 09:57:50;;;;;;;404.67;187.97;;;;;;;;;;5004095;28;20230;-71
2022/11/13 10:00:18;;;;;;;268.93;132.53;;;;;;;;;;5003604;28;20176;-71
2022/11/13 10:03:02;;;;;;;290.03;138.57;;;;;;;;;;5000659;28;20216;-72
2022/11/13 10:05:31;;;;;;;308.10;148.30;;;;;;;;;;5011942;28;21193;-72
2022/11/13 10:08:16;;;;;;;355.43;169.37;;;;;;;;;;5007836;28;20645;-72
2022/11/13 10:10:50;;;;;;;322.93;151.30;;;;;;;;;;5009069;28;20220;-71
2022/11/13 10:13:36;;;;;;;356.30;170.67;;;;;;;;;;4999044;28;20234;-71
2022/11/13 10:16:06;;;;;;;291.70;141.43;;;;;;;;;;5010056;28;20212;-73
2022/11/13 10:18:34;;;;;;;416.40;194.13;;;;;;;;;;5004860;28;20828;-71
2022/11/13 10:21:12;;;;;;;307.10;145.33;;;;;;;;;;5009249;28;20185;-72
2022/11/13 10:23:38;;;;;;;297.93;146.83;;;;;;;;;;5006223;28;20283;-71
2022/11/13 10:26:13;;;;;;;242.97;124.00;;;;;;;;;;5009869;28;20223;-71
2022/11/13 10:28:40;;;;;;;266.53;130.70;;;;;;;;;;5007866;28;20766;-71
2022/11/13 10:31:08;;;;;;;299.77;142.57;;;;;;;;;;5011721;28;20216;-71
2022/11/13 10:33:34;;;;;;;264.90;131.60;;;;;;;;;;5011429;28;20220;-71
2022/11/13 10:36:03;;;;;;;266.57;129.97;;;;;;;;;;5011373;28;20215;-72
2022/11/13 10:38:32;;;;;;;264.93;131.10;;;;;;;;;;5024216;28;20219;-72
2022/11/13 10:41:27;;;;;;;256.17;127.43;;;;;;;;;;5015862;28;20297;-71
2022/11/13 10:43:53;;;;;;;365.40;175.17;;;;;;;;;;5006221;28;20212;-72
2022/11/13 10:46:21;;;;;;;330.00;157.33;;;;;;;;;;5010284;28;20227;-71
2022/11/13 10:48:47;;;;;;;348.37;163.47;;;;;;;;;;4997135;28;20223;-71
2022/11/13 10:51:20;;;;;;;330.70;155.20;;;;;;;;;;5010108;28;20188;-71
2022/11/13 10:53:46;;;;;;;388.90;181.70;;;;;;;;;;5012233;28;20915;-71
2022/11/13 10:56:20;;;;;;;302.30;137.07;;;;;;;;;;5040464;22;20698;-53
2022/11/13 10:58:58;;;;;;;393.60;181.37;;;;;;;;;;5021125;28;20203;-53
2022/11/13 11:01:24;;;;;;;317.77;146.33;;;;;;;;;;5021120;28;20500;-53
2022/11/13 11:03:51;;;;;;;388.93;179.80;;;;;;;;;;5022977;28;20218;-53
2022/11/13 11:06:17;;;;;;;432.37;196.57;;;;;;;;;;4994781;28;20215;-53
2022/11/13 11:08:43;;;;;;;419.70;194.57;;;;;;;;;;4983145;28;20209;-53
2022/11/13 11:14:19;;;;;;;412.53;190.13;;;;;;;;;;4997006;28;20253;-53
2022/11/13 11:16:46;;;;;;;411.03;191.97;;;;;;;;;;5003378;28;20569;-53
2022/11/13 11:19:14;;;;;;;496.13;229.43;;;;;;;;;;4979628;28;20365;-53
2022/11/13 11:21:41;;;;;;;425.50;196.77;;;;;;;;;;4976596;28;22123;-53
2022/11/13 11:24:33;;;;;;;310.83;153.70;;;;;;;;;;4992961;28;20203;-53
2022/11/13 11:27:05;;;;;;;354.93;173.93;;;;;;;;;;5001471;28;20611;-53
2022/11/13 11:29:31;;;;;;;373.30;184.17;;;;;;;;;;4992095;28;20318;-54
2022/11/13 11:32:03;;;;;;;421.77;199.80;;;;;;;;;;4983314;28;20575;-53
2022/11/13 11:34:44;;;;;;;401.57;193.33;;;;;;;;;;5000303;28;20212;-53
2022/11/13 11:37:21;;;;;;;408.67;194.43;;;;;;;;;;4999483;28;20240;-53
2022/11/13 11:39:49;;;;;;;434.57;211.07;;;;;;;;;;4986369;28;20396;-53
2022/11/13 11:42:21;;;;;;;432.30;208.80;;;;;;;;;;4986879;28;20180;-53
2022/11/13 11:44:50;;;;;;;419.07;208.00;;;;;;;;;;4995817;28;20231;-53
2022/11/13 11:47:17;;;;;;;342.60;179.23;;;;;;;;;;5003265;28;20221;-53
2022/11/13 11:49:43;;;;;;;446.87;234.47;;;;;;;;;;4999722;28;20299;-53
2022/11/13 11:52:09;;;;;;;500.13;243.70;;;;;;;;;;5002425;28;20230;-53
2022/11/13 11:54:53;;;;;;;383.97;189.10;;;;;;;;;;4994624;28;20678;-53
2022/11/13 11:57:30;;;;;;;410.80;197.33;;;;;;;;;;5004914;28;20543;-52
2022/11/13 11:59:59;;;;;;;380.77;187.40;;;;;;;;;;5007567;28;20243;-53
2022/11/13 12:02:50;;;;;;;385.63;189.50;;;;;;;;;;5002660;28;20219;-54
2022/11/13 12:05:18;;;;;;;388.10;186.67;;;;;;;;;;4967775;28;20221;-54
2022/11/13 12:07:54;;;;;;;365.73;181.07;;;;;;;;;;5002761;28;20235;-54
2022/11/13 12:10:26;;;;;;;419.83;210.40;;;;;;;;;;4996984;28;20652;-54
2022/11/13 12:13:11;;;;;;;372.97;184.47;;;;;;;;;;4991877;28;20584;-54
2022/11/13 12:15:43;;;;;;;482.80;227.97;;;;;;;;;;4983887;28;20184;-54
2022/11/13 12:18:14;;;;;;;432.80;218.47;;;;;;;;;;4987055;28;20720;-57
2022/11/13 12:20:54;;;;;;;414.90;203.33;;;;;;;;;;4991030;28;20692;-53
2022/11/13 12:23:23;;;;;;;374.60;183.57;;;;;;;;;;5018348;28;20604;-52
2022/11/13 12:25:51;;;;;;;338.40;166.03;;;;;;;;;;5015220;28;20216;-52
2022/11/13 12:28:20;;;;;;;407.40;196.83;;;;;;;;;;5006132;28;20212;-52
2022/11/13 12:30:52;;;;;;;452.07;215.50;;;;;;;;;;4979628;28;20228;-52
2022/11/13 12:33:18;;;;;;;364.27;175.43;;;;;;;;;;5005715;28;20268;-53
2022/11/13 12:35:47;;;;;;;426.20;211.23;;;;;;;;;;5007147;28;20721;-53
2022/11/13 12:38:19;;;;;;;393.20;186.13;;;;;;;;;;4993821;28;20224;-52
2022/11/13 12:40:51;;;;;;;401.57;191.67;;;;;;;;;;5006567;28;20585;-53
2022/11/13 12:43:36;;;;;;;383.40;176.50;;;;;;;;;;5005209;28;20978;-54
2022/11/13 12:46:05;;;;;;;354.87;169.67;;;;;;;;;;4997826;28;20244;-52
2022/11/13 12:48:33;;;;;;;421.57;196.60;;;;;;;;;;5000380;28;20196;-54
2022/11/13 12:51:00;;;;;;;365.30;172.80;;;;;;;;;;5015902;28;20180;-54
2022/11/13 12:53:28;;;;;;;412.40;200.15;;;;;;;;;;5009378;28;20745;-54
2022/11/13 12:56:01;;;;;;;421.73;215.68;;;;;;;;;;5017394;28;20558;-55
2022/11/13 12:58:30;;;;;;;408.50;212.20;;;;;;;;;;5021891;28;20518;-55
2022/11/13 13:01:02;;;;;;;425.65;228.23;;;;;;;;;;4996939;28;20664;-55
2022/11/13 13:03:28;;;;;;;383.42;205.40;;;;;;;;;;5014638;28;20181;-54
2022/11/13 13:06:04;;;;;;;383.08;220.60;;;;;;;;;;5010878;28;20292;-54
2022/11/13 13:08:39;;;;;;;371.80;206.00;;;;;;;;;;5018910;28;20216;-54
2022/11/13 13:11:11;;;;;;;467.05;275.30;;;;;;;;;;5006911;28;20215;-54
2022/11/13 13:13:37;;;;;;;387.45;240.38;;;;;;;;;;4993385;28;20297;-54
2022/11/13 13:16:04;;;;;;;454.77;271.08;;;;;;;;;;4989964;28;20316;-54
2022/11/13 13:18:31;;;;;;;459.27;274.88;;;;;;;;;;4991249;28;20247;-55
2022/11/13 13:21:06;;;;;;;422.52;261.13;;;;;;;;;;5011460;28;20672;-54
2022/11/13 13:23:35;;;;;;;416.80;250.80;;;;;;;;;;5014864;28;20222;-54
2022/11/13 13:26:02;;;;;;;463.75;263.70;;;;;;;;;;4989367;28;20661;-54
2022/11/13 13:28:30;;;;;;;418.58;240.30;;;;;;;;;;4995443;28;20247;-54
2022/11/13 13:31:15;;;;;;;443.08;250.00;;;;;;;;;;5006671;28;20219;-53
2022/11/13 13:33:53;;;;;;;441.35;249.30;;;;;;;;;;5002775;28;20553;-54
2022/11/13 13:36:35;;;;;;;366.38;211.18;;;;;;;;;;5011859;28;20196;-53
2022/11/13 13:39:04;;;;;;;401.35;228.00;;;;;;;;;;4999776;28;20212;-54
2022/11/13 13:41:45;;;;;;;408.40;217.35;;;;;;;;;;4999422;28;20224;-53
2022/11/13 13:44:29;;;;;;;399.38;212.68;;;;;;;;;;4996390;28;20655;-53
2022/11/13 13:46:58;;;;;;;397.63;214.13;;;;;;;;;;4995079;28;20733;-53
2022/11/13 13:49:25;;;;;;;451.25;230.38;;;;;;;;;;4986366;28;20865;-53
2022/11/13 13:51:52;;;;;;;376.00;197.57;;;;;;;;;;4995290;28;20364;-53
2022/11/13 13:54:23;;;;;;;392.98;208.63;;;;;;;;;;4990646;28;20220;-53
2022/11/13 13:56:49;;;;;;;341.77;178.90;;;;;;;;;;4985871;28;20751;-53
2022/11/13 13:59:28;;;;;;;359.35;187.77;;;;;;;;;;4999986;28;20212;-53
2022/11/13 14:01:57;;;;;;;333.30;181.23;;;;;;;;;;5000216;28;20755;-53